KALX/ALX METAR and TAF weather

Enter ICAO airport designator
Station Type Date Time Source
KALX METAR 2021/09/28 03:15 UTC NOAA

KALX 280315Z AUTO 00000KT 10SM CLR 18/17 A3008 RMK AO2 T01770174


Station Type Date Time Source
KALX Decoded METAR 2021/09/28 03:15 UTC NOAA

Alexander City, Thomas C Russell Field Airport, AL, United States (KALX) 32-54-53N 085-57-46W
Sep 27, 2021 - 11:15 PM EDT / 2021.09.28 0315 UTC
Wind: Calm:0
Visibility: 10 mile(s):0
Sky conditions: clear
Temperature: 63.9 F (17.7 C)
Dew Point: 63.3 F (17.4 C)
Relative Humidity: 98%
Pressure (altimeter): 30.08 in. Hg (1018 hPa)
ob: KALX 280315Z AUTO 00000KT 10SM CLR 18/17 A3008 RMK AO2 T01770174
cycle: 3

Station Type Date Time Source
KALX TAF UTC NOAA

Error!

Example: see airport list